DAL3785 KDCA-KBOS
Flight info
| Callsign | DAL3785 |
|---|---|
| Flight time | 1h 7m |
| Altitude | 37000 |
| Route | SOOKI6 SWANN BROSS Q419 JFK ROBUC3 |
| Aircraft | A20N/M-SDE2E3FGHIRWXY/LB1 |
Departure
| Time | 2026-05-08 01:54 |
|---|---|
| Airport | Ronald Reagan Washington National Airport (KDCA) |
Arrival
| Time | 2026-05-08 03:02 |
|---|---|
| Airport | Boston Logan International Airport (KBOS) |
| Time | Latitude | Longitude | Altitude | Speed | Heading |
|---|---|---|---|---|---|
| 2026-05-08 01:17 | 38.85248 | -77.04159 | 27 ft | 0 kts | 162° |
| 2026-05-08 01:35 | 38.85250 | -77.04159 | 24 ft | 1 kts | 162° |
| 2026-05-08 01:35 | 38.85265 | -77.04166 | 24 ft | 3 kts | 150° |
| 2026-05-08 01:35 | 38.85281 | -77.04181 | 25 ft | 3 kts | 127° |
| 2026-05-08 01:35 | 38.85289 | -77.04202 | 26 ft | 3 kts | 93° |
| 2026-05-08 01:36 | 38.85289 | -77.04218 | 29 ft | 0 kts | 72° |
| 2026-05-08 01:40 | 38.85292 | -77.04204 | 24 ft | 8 kts | 72° |
| 2026-05-08 01:40 | 38.85313 | -77.04120 | 25 ft | 9 kts | 72° |
| 2026-05-08 01:40 | 38.85331 | -77.04046 | 24 ft | 8 kts | 72° |
| 2026-05-08 01:40 | 38.85367 | -77.03996 | 24 ft | 7 kts | 11° |
| 2026-05-08 01:41 | 38.85425 | -77.04004 | 24 ft | 9 kts | 355° |
| 2026-05-08 01:41 | 38.85501 | -77.04014 | 24 ft | 13 kts | 349° |
| 2026-05-08 01:41 | 38.85570 | -77.04034 | 24 ft | 8 kts | 351° |
| 2026-05-08 01:41 | 38.85630 | -77.04040 | 24 ft | 9 kts | 356° |
| 2026-05-08 01:42 | 38.85635 | -77.04041 | 24 ft | 0 kts | 356° |
| 2026-05-08 01:42 | 38.85682 | -77.04045 | 25 ft | 6 kts | 355° |
| 2026-05-08 01:43 | 38.85696 | -77.04047 | 26 ft | 0 kts | 355° |
| 2026-05-08 01:43 | 38.85698 | -77.04047 | 26 ft | 2 kts | 355° |
| 2026-05-08 01:43 | 38.85823 | -77.04060 | 28 ft | 21 kts | 355° |
| 2026-05-08 01:44 | 38.85896 | -77.04066 | 25 ft | 0 kts | 1° |
| 2026-05-08 01:44 | 38.85924 | -77.04045 | 24 ft | 3 kts | 51° |
| 2026-05-08 01:44 | 38.85928 | -77.04034 | 25 ft | 0 kts | 67° |
| 2026-05-08 01:45 | 38.85928 | -77.04033 | 25 ft | 1 kts | 67° |
| 2026-05-08 01:45 | 38.85931 | -77.04025 | 26 ft | 0 kts | 70° |
| 2026-05-08 01:46 | 38.85932 | -77.04018 | 26 ft | 1 kts | 72° |
| 2026-05-08 01:47 | 38.85933 | -77.04014 | 27 ft | 2 kts | 72° |
| 2026-05-08 01:47 | 38.85949 | -77.03978 | 27 ft | 3 kts | 40° |
| 2026-05-08 01:47 | 38.85966 | -77.03970 | 24 ft | 2 kts | 17° |
| 2026-05-08 01:48 | 38.85969 | -77.03969 | 24 ft | 0 kts | 17° |
| 2026-05-08 01:48 | 38.85976 | -77.03966 | 24 ft | 7 kts | 17° |
| 2026-05-08 01:49 | 38.86001 | -77.03956 | 24 ft | 0 kts | 17° |
| 2026-05-08 01:51 | 38.86011 | -77.03952 | 24 ft | 7 kts | 17° |
| 2026-05-08 01:51 | 38.86084 | -77.03907 | 23 ft | 11 kts | 59° |
| 2026-05-08 01:52 | 38.86040 | -77.03865 | 23 ft | 8 kts | 179° |
| 2026-05-08 01:52 | 38.86033 | -77.03864 | 24 ft | 0 kts | 176° |
| 2026-05-08 01:53 | 38.85997 | -77.03861 | 24 ft | 27 kts | 176° |
| 2026-05-08 01:54 | 38.85507 | -77.03813 | 29 ft | 112 kts | 175° |
| 2026-05-08 01:54 | 38.84507 | -77.03712 | 194 ft | 161 kts | 178° |
| 2026-05-08 01:54 | 38.83381 | -77.03585 | 1020 ft | 165 kts | 174° |
| 2026-05-08 01:54 | 38.82223 | -77.03355 | 1838 ft | 173 kts | 174° |
| 2026-05-08 01:55 | 38.80967 | -77.03097 | 2231 ft | 191 kts | 173° |
| 2026-05-08 01:55 | 38.79601 | -77.02804 | 2519 ft | 212 kts | 172° |
| 2026-05-08 01:55 | 38.78057 | -77.02466 | 2817 ft | 236 kts | 172° |
| 2026-05-08 01:55 | 38.76419 | -77.01975 | 3438 ft | 248 kts | 155° |
| 2026-05-08 01:56 | 38.75129 | -77.00486 | 4014 ft | 262 kts | 118° |
| 2026-05-08 01:56 | 38.74617 | -76.98191 | 4526 ft | 275 kts | 92° |
| 2026-05-08 01:56 | 38.74629 | -76.95750 | 4921 ft | 278 kts | 76° |
| 2026-05-08 01:56 | 38.75318 | -76.93480 | 5005 ft | 272 kts | 55° |
| 2026-05-08 01:57 | 38.76440 | -76.91512 | 5473 ft | 274 kts | 44° |
| 2026-05-08 01:57 | 38.77809 | -76.89840 | 6417 ft | 270 kts | 32° |
| 2026-05-08 01:57 | 38.79382 | -76.88508 | 7220 ft | 273 kts | 26° |
| 2026-05-08 01:57 | 38.81010 | -76.87210 | 7936 ft | 278 kts | 26° |
| 2026-05-08 01:58 | 38.82682 | -76.85892 | 8658 ft | 285 kts | 25° |
| 2026-05-08 01:58 | 38.84373 | -76.84569 | 9383 ft | 291 kts | 25° |
| 2026-05-08 01:58 | 38.86119 | -76.83188 | 10049 ft | 299 kts | 28° |
| 2026-05-08 01:58 | 38.87789 | -76.81434 | 10412 ft | 322 kts | 35° |
| 2026-05-08 01:59 | 38.89533 | -76.79449 | 10607 ft | 345 kts | 36° |
| 2026-05-08 01:59 | 38.91356 | -76.77342 | 11063 ft | 357 kts | 37° |
| 2026-05-08 01:59 | 38.93196 | -76.75192 | 11640 ft | 365 kts | 37° |
| 2026-05-08 01:59 | 38.95098 | -76.72965 | 12268 ft | 373 kts | 37° |
| 2026-05-08 02:00 | 38.97033 | -76.70702 | 12869 ft | 379 kts | 37° |
| 2026-05-08 02:00 | 38.99007 | -76.68397 | 13457 ft | 387 kts | 37° |
| 2026-05-08 02:00 | 39.01015 | -76.66055 | 14013 ft | 393 kts | 38° |
| 2026-05-08 02:00 | 39.03027 | -76.63624 | 14565 ft | 399 kts | 39° |
| 2026-05-08 02:01 | 39.04997 | -76.61137 | 15140 ft | 404 kts | 40° |
| 2026-05-08 02:01 | 39.06992 | -76.58554 | 15660 ft | 409 kts | 40° |
| 2026-05-08 02:01 | 39.08961 | -76.55878 | 16202 ft | 417 kts | 46° |
| 2026-05-08 02:01 | 39.10621 | -76.52767 | 16712 ft | 426 kts | 58° |
| 2026-05-08 02:02 | 39.11851 | -76.49267 | 17240 ft | 433 kts | 70° |
| 2026-05-08 02:02 | 39.12600 | -76.45497 | 17798 ft | 436 kts | 82° |
| 2026-05-08 02:02 | 39.13052 | -76.41605 | 18336 ft | 441 kts | 83° |
| 2026-05-08 02:02 | 39.13348 | -76.39010 | 18634 ft | 444 kts | 83° |
| 2026-05-08 02:03 | 39.13795 | -76.35058 | 19091 ft | 448 kts | 83° |
| 2026-05-08 02:03 | 39.14241 | -76.31064 | 19547 ft | 452 kts | 83° |
| 2026-05-08 02:03 | 39.14689 | -76.27026 | 20008 ft | 457 kts | 83° |
| 2026-05-08 02:03 | 39.15141 | -76.22948 | 20463 ft | 461 kts | 83° |
| 2026-05-08 02:04 | 39.15593 | -76.18924 | 20905 ft | 465 kts | 82° |
| 2026-05-08 02:04 | 39.16069 | -76.14776 | 21355 ft | 470 kts | 82° |
| 2026-05-08 02:04 | 39.16553 | -76.10596 | 21811 ft | 473 kts | 82° |
| 2026-05-08 02:04 | 39.17043 | -76.06380 | 22273 ft | 477 kts | 82° |
| 2026-05-08 02:05 | 39.17531 | -76.02131 | 22722 ft | 481 kts | 82° |
| 2026-05-08 02:05 | 39.18034 | -75.97846 | 23198 ft | 485 kts | 80° |
| 2026-05-08 02:05 | 39.18879 | -75.93647 | 23572 ft | 489 kts | 69° |
| 2026-05-08 02:05 | 39.20233 | -75.89612 | 23898 ft | 490 kts | 58° |
| 2026-05-08 02:06 | 39.22020 | -75.85941 | 24242 ft | 488 kts | 48° |
| 2026-05-08 02:06 | 39.24219 | -75.82633 | 24572 ft | 485 kts | 38° |
| 2026-05-08 02:06 | 39.26732 | -75.79755 | 24925 ft | 482 kts | 33° |
| 2026-05-08 02:06 | 39.29305 | -75.76955 | 25255 ft | 485 kts | 33° |
| 2026-05-08 02:07 | 39.31892 | -75.74137 | 25599 ft | 487 kts | 33° |
| 2026-05-08 02:07 | 39.34489 | -75.71294 | 25936 ft | 490 kts | 33° |
| 2026-05-08 02:07 | 39.37098 | -75.68428 | 26312 ft | 493 kts | 33° |
| 2026-05-08 02:07 | 39.39718 | -75.65544 | 26604 ft | 496 kts | 33° |
| 2026-05-08 02:08 | 39.42357 | -75.62634 | 26916 ft | 499 kts | 33° |
| 2026-05-08 02:08 | 39.44975 | -75.59752 | 27225 ft | 501 kts | 33° |
| 2026-05-08 02:08 | 39.47639 | -75.56821 | 27534 ft | 504 kts | 32° |
| 2026-05-08 02:08 | 39.50312 | -75.53879 | 27841 ft | 506 kts | 32° |
| 2026-05-08 02:09 | 39.52969 | -75.50953 | 28138 ft | 509 kts | 32° |
| 2026-05-08 02:09 | 39.55664 | -75.47980 | 28429 ft | 511 kts | 32° |
| 2026-05-08 02:09 | 39.58389 | -75.44970 | 28747 ft | 514 kts | 32° |
| 2026-05-08 02:09 | 39.61115 | -75.41951 | 28991 ft | 517 kts | 32° |
| 2026-05-08 02:10 | 39.63821 | -75.38950 | 29263 ft | 519 kts | 32° |
| 2026-05-08 02:10 | 39.66582 | -75.35888 | 29530 ft | 521 kts | 32° |
| 2026-05-08 02:10 | 39.69346 | -75.32825 | 29781 ft | 523 kts | 32° |
| 2026-05-08 02:10 | 39.72118 | -75.29750 | 30022 ft | 525 kts | 32° |
| 2026-05-08 02:11 | 39.74906 | -75.26645 | 30237 ft | 527 kts | 32° |
| 2026-05-08 02:11 | 39.77662 | -75.23568 | 30433 ft | 530 kts | 33° |
| 2026-05-08 02:11 | 39.80333 | -75.20153 | 30544 ft | 543 kts | 42° |
| 2026-05-08 02:11 | 39.82832 | -75.16439 | 30663 ft | 546 kts | 42° |
| 2026-05-08 02:12 | 39.85339 | -75.12703 | 30795 ft | 549 kts | 42° |
| 2026-05-08 02:12 | 39.87860 | -75.08944 | 30883 ft | 552 kts | 42° |
| 2026-05-08 02:12 | 39.92951 | -75.01361 | 30917 ft | 559 kts | 42° |
| 2026-05-08 02:13 | 39.97903 | -74.93533 | 30909 ft | 570 kts | 51° |
| 2026-05-08 02:13 | 40.02308 | -74.84890 | 30906 ft | 571 kts | 52° |
| 2026-05-08 02:14 | 40.06703 | -74.76249 | 30902 ft | 571 kts | 52° |
| 2026-05-08 02:14 | 40.11071 | -74.67651 | 30917 ft | 571 kts | 52° |
| 2026-05-08 02:15 | 40.15458 | -74.58991 | 30911 ft | 571 kts | 52° |
| 2026-05-08 02:15 | 40.19990 | -74.50488 | 30895 ft | 564 kts | 43° |
| 2026-05-08 02:16 | 40.25653 | -74.43711 | 30897 ft | 551 kts | 31° |
| 2026-05-08 02:16 | 40.31616 | -74.37355 | 30912 ft | 551 kts | 32° |
| 2026-05-08 02:17 | 40.37550 | -74.31012 | 30875 ft | 550 kts | 32° |
| 2026-05-08 02:17 | 40.43452 | -74.24678 | 30880 ft | 550 kts | 32° |
| 2026-05-08 02:18 | 40.49390 | -74.18286 | 30933 ft | 551 kts | 32° |
| 2026-05-08 02:18 | 40.54608 | -74.10844 | 30902 ft | 567 kts | 54° |
| 2026-05-08 02:19 | 40.56408 | -74.06319 | 30895 ft | 571 kts | 66° |
| 2026-05-08 02:19 | 40.57672 | -74.01352 | 30896 ft | 572 kts | 72° |
| 2026-05-08 02:19 | 40.59993 | -73.91307 | 30877 ft | 574 kts | 72° |
| 2026-05-08 02:20 | 40.62429 | -73.81382 | 30885 ft | 573 kts | 65° |
| 2026-05-08 02:20 | 40.66524 | -73.72454 | 30915 ft | 564 kts | 45° |
| 2026-05-08 02:21 | 40.71667 | -73.64943 | 30863 ft | 562 kts | 43° |
| 2026-05-08 02:21 | 40.76917 | -73.57261 | 30873 ft | 563 kts | 43° |
| 2026-05-08 02:22 | 40.82147 | -73.49561 | 30916 ft | 564 kts | 43° |
| 2026-05-08 02:22 | 40.84694 | -73.45796 | 30804 ft | 564 kts | 43° |
| 2026-05-08 02:22 | 40.87322 | -73.41905 | 30322 ft | 550 kts | 43° |
| 2026-05-08 02:23 | 40.89808 | -73.38208 | 30048 ft | 526 kts | 43° |
| 2026-05-08 02:23 | 40.92206 | -73.34640 | 29341 ft | 513 kts | 43° |
| 2026-05-08 02:23 | 40.94561 | -73.31143 | 28555 ft | 503 kts | 43° |
| 2026-05-08 02:23 | 40.96873 | -73.27726 | 27820 ft | 492 kts | 43° |
| 2026-05-08 02:24 | 40.99104 | -73.24429 | 27602 ft | 470 kts | 43° |
| 2026-05-08 02:24 | 41.01261 | -73.21235 | 27217 ft | 460 kts | 43° |
| 2026-05-08 02:24 | 41.03364 | -73.18129 | 26782 ft | 458 kts | 43° |
| 2026-05-08 02:24 | 41.05486 | -73.14992 | 26355 ft | 455 kts | 43° |
| 2026-05-08 02:25 | 41.07587 | -73.11870 | 25905 ft | 453 kts | 44° |
| 2026-05-08 02:25 | 41.09677 | -73.08756 | 25471 ft | 451 kts | 44° |
| 2026-05-08 02:25 | 41.11766 | -73.05643 | 25018 ft | 449 kts | 44° |
| 2026-05-08 02:25 | 41.13837 | -73.02548 | 24561 ft | 448 kts | 44° |
| 2026-05-08 02:26 | 41.15880 | -72.99488 | 24100 ft | 448 kts | 45° |
| 2026-05-08 02:26 | 41.17945 | -72.96389 | 23637 ft | 447 kts | 45° |
| 2026-05-08 02:26 | 41.20000 | -72.93273 | 23083 ft | 447 kts | 49° |
| 2026-05-08 02:26 | 41.21750 | -72.89882 | 22838 ft | 439 kts | 60° |
| 2026-05-08 02:27 | 41.23124 | -72.86346 | 22737 ft | 434 kts | 63° |
| 2026-05-08 02:27 | 41.24493 | -72.82772 | 22478 ft | 431 kts | 63° |
| 2026-05-08 02:27 | 41.25852 | -72.79236 | 22301 ft | 428 kts | 63° |
| 2026-05-08 02:27 | 41.27211 | -72.75700 | 22309 ft | 429 kts | 63° |
| 2026-05-08 02:28 | 41.28567 | -72.72168 | 22303 ft | 429 kts | 63° |
| 2026-05-08 02:28 | 41.29922 | -72.68627 | 22363 ft | 430 kts | 63° |
| 2026-05-08 02:28 | 41.31278 | -72.65072 | 22367 ft | 431 kts | 63° |
| 2026-05-08 02:28 | 41.32636 | -72.61505 | 22370 ft | 432 kts | 63° |
| 2026-05-08 02:29 | 41.33974 | -72.57982 | 22336 ft | 431 kts | 64° |
| 2026-05-08 02:29 | 41.35323 | -72.54420 | 22334 ft | 430 kts | 64° |
| 2026-05-08 02:29 | 41.36667 | -72.50863 | 22324 ft | 430 kts | 64° |
| 2026-05-08 02:29 | 41.38014 | -72.47300 | 22327 ft | 430 kts | 64° |
| 2026-05-08 02:30 | 41.39364 | -72.43730 | 22318 ft | 430 kts | 64° |
| 2026-05-08 02:30 | 41.40711 | -72.40162 | 22323 ft | 430 kts | 64° |
| 2026-05-08 02:30 | 41.42057 | -72.36590 | 22326 ft | 431 kts | 64° |
| 2026-05-08 02:30 | 41.43385 | -72.33069 | 22323 ft | 431 kts | 64° |
| 2026-05-08 02:31 | 41.44735 | -72.29491 | 22318 ft | 431 kts | 64° |
| 2026-05-08 02:31 | 41.46077 | -72.25923 | 22309 ft | 430 kts | 64° |
| 2026-05-08 02:31 | 41.47414 | -72.22355 | 22285 ft | 429 kts | 64° |
| 2026-05-08 02:31 | 41.48746 | -72.18787 | 22261 ft | 429 kts | 64° |
| 2026-05-08 02:32 | 41.50060 | -72.15215 | 22278 ft | 429 kts | 65° |
| 2026-05-08 02:32 | 41.51363 | -72.11630 | 22274 ft | 429 kts | 65° |
| 2026-05-08 02:32 | 41.52648 | -72.08085 | 22274 ft | 429 kts | 65° |
| 2026-05-08 02:32 | 41.53948 | -72.04501 | 22275 ft | 429 kts | 65° |
| 2026-05-08 02:33 | 41.55252 | -72.00914 | 22275 ft | 429 kts | 65° |
| 2026-05-08 02:33 | 41.56506 | -71.97306 | 22273 ft | 429 kts | 68° |
| 2026-05-08 02:33 | 41.57665 | -71.93636 | 22279 ft | 428 kts | 70° |
| 2026-05-08 02:33 | 41.58753 | -71.89939 | 22273 ft | 428 kts | 71° |
| 2026-05-08 02:34 | 41.59813 | -71.86223 | 22272 ft | 428 kts | 71° |
| 2026-05-08 02:34 | 41.60869 | -71.82514 | 22269 ft | 427 kts | 71° |
| 2026-05-08 02:34 | 41.61934 | -71.78796 | 22261 ft | 427 kts | 71° |
| 2026-05-08 02:34 | 41.63008 | -71.75092 | 22269 ft | 428 kts | 70° |
| 2026-05-08 02:35 | 41.64090 | -71.71388 | 22274 ft | 428 kts | 70° |
| 2026-05-08 02:35 | 41.65179 | -71.67686 | 22281 ft | 428 kts | 70° |
| 2026-05-08 02:35 | 41.66273 | -71.63992 | 22284 ft | 428 kts | 70° |
| 2026-05-08 02:35 | 41.67369 | -71.60293 | 22287 ft | 428 kts | 70° |
| 2026-05-08 02:36 | 41.68461 | -71.56593 | 22283 ft | 427 kts | 70° |
| 2026-05-08 02:36 | 41.69531 | -71.52942 | 22247 ft | 427 kts | 70° |
| 2026-05-08 02:36 | 41.70612 | -71.49240 | 22257 ft | 427 kts | 70° |
| 2026-05-08 02:36 | 41.71687 | -71.45544 | 22283 ft | 427 kts | 70° |
| 2026-05-08 02:37 | 41.72906 | -71.41910 | 22276 ft | 428 kts | 60° |
| 2026-05-08 02:37 | 41.74381 | -71.38446 | 22277 ft | 428 kts | 60° |
| 2026-05-08 02:37 | 41.75856 | -71.35000 | 21691 ft | 426 kts | 60° |
| 2026-05-08 02:37 | 41.77334 | -71.31555 | 20889 ft | 424 kts | 60° |
| 2026-05-08 02:38 | 41.78783 | -71.28172 | 20176 ft | 420 kts | 60° |
| 2026-05-08 02:38 | 41.80229 | -71.24790 | 19472 ft | 415 kts | 60° |
| 2026-05-08 02:38 | 41.81659 | -71.21440 | 18818 ft | 411 kts | 61° |
| 2026-05-08 02:38 | 41.83071 | -71.18123 | 18180 ft | 407 kts | 61° |
| 2026-05-08 02:39 | 41.84463 | -71.14843 | 17490 ft | 402 kts | 61° |
| 2026-05-08 02:39 | 41.85837 | -71.11606 | 16943 ft | 394 kts | 60° |
| 2026-05-08 02:39 | 41.87169 | -71.08492 | 16390 ft | 386 kts | 60° |
| 2026-05-08 02:39 | 41.88502 | -71.05406 | 15828 ft | 379 kts | 59° |
| 2026-05-08 02:40 | 41.89820 | -71.02374 | 15277 ft | 372 kts | 59° |
| 2026-05-08 02:40 | 41.91113 | -70.99401 | 14736 ft | 365 kts | 58° |
| 2026-05-08 02:40 | 41.92376 | -70.96484 | 14206 ft | 358 kts | 58° |
| 2026-05-08 02:40 | 41.93613 | -70.93604 | 13692 ft | 351 kts | 58° |
| 2026-05-08 02:41 | 41.94819 | -70.90784 | 13101 ft | 345 kts | 58° |
| 2026-05-08 02:41 | 41.96007 | -70.88017 | 12496 ft | 338 kts | 58° |
| 2026-05-08 02:41 | 41.97162 | -70.85329 | 11899 ft | 333 kts | 58° |
| 2026-05-08 02:41 | 41.98313 | -70.82648 | 11322 ft | 328 kts | 58° |
| 2026-05-08 02:42 | 41.99441 | -70.80015 | 10746 ft | 322 kts | 58° |
| 2026-05-08 02:42 | 42.00549 | -70.77431 | 10203 ft | 315 kts | 57° |
| 2026-05-08 02:42 | 42.01830 | -70.75102 | 9707 ft | 305 kts | 45° |
| 2026-05-08 02:42 | 42.03208 | -70.73054 | 9522 ft | 285 kts | 45° |
| 2026-05-08 02:43 | 42.04486 | -70.71140 | 9296 ft | 268 kts | 45° |
| 2026-05-08 02:43 | 42.05715 | -70.69292 | 8832 ft | 262 kts | 45° |
| 2026-05-08 02:43 | 42.06916 | -70.67491 | 8549 ft | 256 kts | 45° |
| 2026-05-08 02:43 | 42.08088 | -70.65733 | 8410 ft | 250 kts | 44° |
| 2026-05-08 02:44 | 42.09239 | -70.64023 | 8237 ft | 239 kts | 41° |
| 2026-05-08 02:44 | 42.10465 | -70.62654 | 8032 ft | 228 kts | 28° |
| 2026-05-08 02:44 | 42.11882 | -70.61649 | 7858 ft | 226 kts | 17° |
| 2026-05-08 02:44 | 42.13382 | -70.61062 | 7642 ft | 242 kts | 6° |
| 2026-05-08 02:45 | 42.15159 | -70.60695 | 7348 ft | 264 kts | 5° |
| 2026-05-08 02:45 | 42.16919 | -70.60322 | 7075 ft | 248 kts | 6° |
| 2026-05-08 02:45 | 42.18573 | -70.59965 | 6813 ft | 233 kts | 6° |
| 2026-05-08 02:45 | 42.20127 | -70.59630 | 6558 ft | 221 kts | 6° |
| 2026-05-08 02:46 | 42.21637 | -70.59307 | 6317 ft | 218 kts | 6° |
| 2026-05-08 02:46 | 42.23109 | -70.58993 | 6076 ft | 215 kts | 6° |
| 2026-05-08 02:46 | 42.24578 | -70.58679 | 5831 ft | 212 kts | 6° |
| 2026-05-08 02:46 | 42.26034 | -70.58368 | 5606 ft | 211 kts | 6° |
| 2026-05-08 02:47 | 42.27482 | -70.58066 | 5420 ft | 209 kts | 6° |
| 2026-05-08 02:47 | 42.28923 | -70.57769 | 5351 ft | 210 kts | 6° |
| 2026-05-08 02:47 | 42.30367 | -70.57461 | 5263 ft | 210 kts | 6° |
| 2026-05-08 02:47 | 42.31806 | -70.57143 | 5166 ft | 209 kts | 6° |
| 2026-05-08 02:48 | 42.33243 | -70.56821 | 5082 ft | 209 kts | 6° |
| 2026-05-08 02:48 | 42.34678 | -70.56495 | 4989 ft | 209 kts | 7° |
| 2026-05-08 02:48 | 42.36110 | -70.56166 | 4894 ft | 209 kts | 6° |
| 2026-05-08 02:48 | 42.37526 | -70.55839 | 4789 ft | 208 kts | 6° |
| 2026-05-08 02:49 | 42.38946 | -70.55505 | 4579 ft | 206 kts | 6° |
| 2026-05-08 02:49 | 42.40329 | -70.54992 | 4267 ft | 210 kts | 27° |
| 2026-05-08 02:49 | 42.41313 | -70.53544 | 4045 ft | 215 kts | 65° |
| 2026-05-08 02:49 | 42.41685 | -70.51543 | 3992 ft | 222 kts | 78° |
| 2026-05-08 02:50 | 42.41741 | -70.49437 | 3999 ft | 225 kts | 92° |
| 2026-05-08 02:50 | 42.41573 | -70.47327 | 3998 ft | 226 kts | 95° |
| 2026-05-08 02:50 | 42.41371 | -70.45243 | 4004 ft | 226 kts | 96° |
| 2026-05-08 02:50 | 42.41161 | -70.43126 | 4004 ft | 226 kts | 96° |
| 2026-05-08 02:51 | 42.41131 | -70.41026 | 3999 ft | 222 kts | 71° |
| 2026-05-08 02:51 | 42.41876 | -70.39279 | 4004 ft | 212 kts | 36° |
| 2026-05-08 02:51 | 42.43135 | -70.38504 | 4000 ft | 194 kts | 358° |
| 2026-05-08 02:51 | 42.44382 | -70.38938 | 4003 ft | 185 kts | 321° |
| 2026-05-08 02:52 | 42.45127 | -70.40317 | 4007 ft | 185 kts | 290° |
| 2026-05-08 02:52 | 42.45264 | -70.42044 | 4007 ft | 188 kts | 267° |
| 2026-05-08 02:52 | 42.45057 | -70.43798 | 4004 ft | 189 kts | 262° |
| 2026-05-08 02:52 | 42.44785 | -70.45539 | 4004 ft | 189 kts | 261° |
| 2026-05-08 02:53 | 42.44515 | -70.47264 | 4000 ft | 189 kts | 265° |
| 2026-05-08 02:53 | 42.44522 | -70.49024 | 4005 ft | 187 kts | 271° |
| 2026-05-08 02:53 | 42.44359 | -70.50772 | 3852 ft | 187 kts | 262° |
| 2026-05-08 02:53 | 42.44086 | -70.52506 | 3552 ft | 188 kts | 261° |
| 2026-05-08 02:54 | 42.43893 | -70.53654 | 3368 ft | 188 kts | 261° |
| 2026-05-08 02:54 | 42.43598 | -70.55377 | 3091 ft | 187 kts | 261° |
| 2026-05-08 02:54 | 42.43303 | -70.57086 | 2991 ft | 184 kts | 261° |
| 2026-05-08 02:54 | 42.42924 | -70.59276 | 3002 ft | 179 kts | 261° |
| 2026-05-08 02:55 | 42.42732 | -70.60388 | 3009 ft | 178 kts | 261° |
| 2026-05-08 02:55 | 42.42170 | -70.63634 | 3000 ft | 178 kts | 261° |
| 2026-05-08 02:55 | 42.41888 | -70.65264 | 3002 ft | 178 kts | 261° |
| 2026-05-08 02:56 | 42.41605 | -70.66892 | 2998 ft | 178 kts | 261° |
| 2026-05-08 02:56 | 42.41321 | -70.68532 | 3019 ft | 183 kts | 261° |
| 2026-05-08 02:56 | 42.41025 | -70.70235 | 3022 ft | 187 kts | 261° |
| 2026-05-08 02:56 | 42.40726 | -70.71953 | 3018 ft | 187 kts | 261° |
| 2026-05-08 02:57 | 42.40430 | -70.73648 | 3022 ft | 188 kts | 261° |
| 2026-05-08 02:57 | 42.40130 | -70.75368 | 3025 ft | 187 kts | 261° |
| 2026-05-08 02:57 | 42.39831 | -70.77079 | 3016 ft | 187 kts | 261° |
| 2026-05-08 02:57 | 42.39530 | -70.78801 | 2968 ft | 188 kts | 261° |
| 2026-05-08 02:58 | 42.39230 | -70.80519 | 2767 ft | 188 kts | 261° |
| 2026-05-08 02:58 | 42.38929 | -70.82236 | 2530 ft | 187 kts | 261° |
| 2026-05-08 02:58 | 42.38631 | -70.83940 | 2284 ft | 185 kts | 261° |
| 2026-05-08 02:58 | 42.38340 | -70.85596 | 2077 ft | 178 kts | 262° |
| 2026-05-08 02:59 | 42.38062 | -70.87169 | 1796 ft | 164 kts | 262° |
| 2026-05-08 02:59 | 42.37811 | -70.88594 | 1583 ft | 148 kts | 262° |
| 2026-05-08 02:59 | 42.37582 | -70.89896 | 1412 ft | 137 kts | 262° |
| 2026-05-08 02:59 | 42.37365 | -70.91138 | 1208 ft | 134 kts | 261° |
| 2026-05-08 03:00 | 42.37152 | -70.92353 | 1021 ft | 132 kts | 260° |
| 2026-05-08 03:00 | 42.36941 | -70.93552 | 840 ft | 133 kts | 259° |
| 2026-05-08 03:00 | 42.36727 | -70.94764 | 670 ft | 132 kts | 259° |
| 2026-05-08 03:00 | 42.36523 | -70.95967 | 519 ft | 132 kts | 259° |
| 2026-05-08 03:01 | 42.36310 | -70.97172 | 335 ft | 132 kts | 258° |
| 2026-05-08 03:01 | 42.36096 | -70.98365 | 138 ft | 130 kts | 258° |
| 2026-05-08 03:01 | 42.35895 | -70.99528 | 27 ft | 114 kts | 256° |
| 2026-05-08 03:01 | 42.35750 | -71.00331 | 25 ft | 63 kts | 257° |
| 2026-05-08 03:02 | 42.35662 | -71.00827 | 25 ft | 50 kts | 256° |
| 2026-05-08 03:02 | 42.35652 | -71.01133 | 28 ft | 25 kts | 292° |
| 2026-05-08 03:02 | 42.35724 | -71.01266 | 27 ft | 16 kts | 306° |
| 2026-05-08 03:02 | 42.35744 | -71.01319 | 25 ft | 0 kts | 290° |
| 2026-05-08 03:03 | 42.35745 | -71.01320 | 25 ft | 1 kts | 290° |
| 2026-05-08 03:04 | 42.35768 | -71.01408 | 27 ft | 16 kts | 290° |
| 2026-05-08 03:04 | 42.35808 | -71.01557 | 27 ft | 17 kts | 289° |
| 2026-05-08 03:04 | 42.35835 | -71.01717 | 26 ft | 18 kts | 281° |
| 2026-05-08 03:04 | 42.35869 | -71.01884 | 28 ft | 19 kts | 295° |
| 2026-05-08 03:05 | 42.35894 | -71.01946 | 27 ft | 0 kts | 300° |
| 2026-05-08 03:05 | 42.35899 | -71.01957 | 27 ft | 8 kts | 300° |
| 2026-05-08 03:05 | 42.35967 | -71.02107 | 27 ft | 20 kts | 302° |
| 2026-05-08 03:05 | 42.36033 | -71.02259 | 28 ft | 19 kts | 300° |
| 2026-05-08 03:06 | 42.36103 | -71.02332 | 26 ft | 12 kts | 327° |
| 2026-05-08 03:06 | 42.36178 | -71.02377 | 26 ft | 3 kts | 308° |
| 2026-05-08 03:06 | 42.36172 | -71.02393 | 25 ft | 3 kts | 233° |
| 2026-05-08 03:06 | 42.36178 | -71.02407 | 30 ft | 3 kts | 316° |
| 2026-05-08 03:07 | 42.36185 | -71.02430 | 25 ft | 2 kts | 281° |
| 2026-05-08 03:07 | 42.36186 | -71.02434 | 25 ft | 0 kts | 282° |
| 2026-05-08 03:07 | 42.36187 | -71.02441 | 25 ft | 0 kts | 282° |
| 2026-05-08 03:08 | 42.36187 | -71.02444 | 25 ft | 0 kts | 281° |